createdAt,value
2022-11-16T00:00:59.755Z,99668.53
2022-11-16T00:03:26.548Z,99664.31
2022-11-16T00:06:01.020Z,99670.97
2022-11-16T00:08:30.722Z,99667.31
2022-11-16T00:11:09.020Z,99663.28
2022-11-16T00:13:36.829Z,99673.00
2022-11-16T00:16:04.663Z,99672.19
2022-11-16T00:18:31.894Z,99645.56
2022-11-16T00:20:58.951Z,99642.94
2022-11-16T00:23:25.777Z,99659.91
2022-11-16T00:25:53.722Z,99637.94
2022-11-16T00:28:20.349Z,99651.06
2022-11-16T00:30:47.038Z,99639.16
2022-11-16T00:33:17.957Z,99648.88
2022-11-16T00:35:44.576Z,99628.66
2022-11-16T00:38:11.285Z,99631.88
2022-11-16T00:40:37.953Z,99626.81
2022-11-16T00:43:04.702Z,99615.75
2022-11-16T00:45:31.523Z,99614.97
2022-11-16T00:48:00.579Z,99510.31
2022-11-16T00:50:27.360Z,99625.63
2022-11-16T00:52:54.507Z,99608.91
2022-11-16T00:55:21.333Z,99632.91
2022-11-16T00:57:48.075Z,99623.81
2022-11-16T01:00:15.303Z,99630.28
2022-11-16T01:02:42.308Z,99593.78
2022-11-16T01:05:10.306Z,99604.88
2022-11-16T01:07:38.089Z,99623.22
2022-11-16T01:10:07.807Z,99618.38
2022-11-16T01:12:34.849Z,99587.53
2022-11-16T01:15:01.692Z,99612.13
2022-11-16T01:17:28.513Z,99609.31
2022-11-16T01:19:55.295Z,99574.81
2022-11-16T01:22:21.929Z,99569.00
2022-11-16T01:24:48.607Z,99571.22
2022-11-16T01:27:15.301Z,99560.50
2022-11-16T01:29:42.330Z,99604.88
2022-11-16T01:32:09.236Z,99565.78
2022-11-16T01:34:36.261Z,99587.13
2022-11-16T01:37:02.969Z,99572.19
2022-11-16T01:39:29.627Z,99567.78
2022-11-16T01:41:56.332Z,99599.41
2022-11-16T01:44:32.088Z,99590.75
2022-11-16T01:46:59.351Z,99581.09
2022-11-16T01:49:29.065Z,99586.91
2022-11-16T01:52:02.243Z,99533.34
2022-11-16T01:54:31.120Z,99576.25
2022-11-16T01:57:02.399Z,99568.19
2022-11-16T01:59:30.059Z,99552.66
2022-11-16T02:01:58.794Z,99562.94
2022-11-16T02:04:25.736Z,99550.09
2022-11-16T02:07:24.632Z,99563.16
2022-11-16T02:10:21.043Z,99551.28
2022-11-16T02:12:56.513Z,99560.53
2022-11-16T02:15:23.206Z,99549.50
2022-11-16T02:18:11.723Z,99544.84
2022-11-16T02:21:00.762Z,99538.81
2022-11-16T02:23:42.351Z,99539.19
2022-11-16T02:26:20.967Z,99536.00
2022-11-16T02:29:21.620Z,99535.38
2022-11-16T02:31:59.844Z,99534.78
2022-11-16T02:34:33.626Z,99535.56
2022-11-16T02:37:02.595Z,99516.03
2022-11-16T02:39:32.717Z,99517.66
2022-11-16T02:42:01.806Z,99504.53
2022-11-16T02:44:34.496Z,99511.59
2022-11-16T02:47:05.383Z,99521.47
2022-11-16T02:49:37.973Z,99500.53
2022-11-16T02:52:05.215Z,99506.16
2022-11-16T02:54:31.857Z,99499.09
2022-11-16T02:57:04.424Z,99526.09
2022-11-16T02:59:37.716Z,99470.69
2022-11-16T03:02:16.274Z,99490.25
2022-11-16T03:04:54.651Z,99507.38
2022-11-16T03:07:27.380Z,99474.75
2022-11-16T03:09:55.603Z,99471.31
2022-11-16T03:12:27.105Z,99491.47
2022-11-16T03:15:01.614Z,99474.75
2022-11-16T03:17:39.658Z,99445.75
2022-11-16T03:20:20.875Z,99502.13
2022-11-16T03:22:54.140Z,99492.88
2022-11-16T03:25:24.289Z,99481.38
2022-11-16T03:28:07.897Z,99490.63
2022-11-16T03:30:40.947Z,99504.13
2022-11-16T03:33:20.235Z,99502.72
2022-11-16T03:35:59.777Z,99504.94
2022-11-16T03:38:28.673Z,99497.28
2022-11-16T03:41:01.145Z,99482.75
2022-11-16T03:43:28.555Z,99453.00
2022-11-16T03:45:56.278Z,99496.06
2022-11-16T03:48:23.263Z,99449.75
2022-11-16T03:50:50.502Z,99465.25
2022-11-16T03:53:17.448Z,99509.16
2022-11-16T03:55:49.615Z,99451.34
2022-11-16T03:58:18.770Z,99441.06
2022-11-16T04:00:46.009Z,99484.19
2022-11-16T04:03:12.751Z,99478.16
2022-11-16T04:05:58.273Z,99496.88
2022-11-16T04:09:00.295Z,99467.66
2022-11-16T04:11:45.679Z,99480.94
2022-11-16T04:14:39.155Z,99490.03
2022-11-16T04:17:38.382Z,99456.19
2022-11-16T04:20:24.351Z,99466.66
2022-11-16T04:23:21.944Z,99485.16
2022-11-16T04:25:51.111Z,99491.97
2022-11-16T04:28:21.360Z,99499.03
2022-11-16T04:31:09.706Z,99464.78
2022-11-16T04:33:55.393Z,99494.44
2022-11-16T04:36:41.029Z,99476.25
2022-11-16T04:39:08.487Z,99444.81
2022-11-16T04:41:57.462Z,99500.88
2022-11-16T04:45:07.469Z,99451.31
2022-11-16T04:50:48.062Z,99323.16
2022-11-16T04:53:15.537Z,99299.47
2022-11-16T04:55:42.404Z,99316.66
2022-11-16T04:58:14.442Z,99504.09
2022-11-16T05:00:41.698Z,99337.72
2022-11-16T05:03:10.714Z,99352.72
2022-11-16T05:05:50.520Z,99502.69
2022-11-16T05:08:42.002Z,99389.06
2022-11-16T05:11:27.040Z,99390.44
2022-11-16T05:14:10.692Z,99387.22
2022-11-16T05:16:39.088Z,99389.44
2022-11-16T05:19:24.611Z,99489.97
2022-11-16T05:21:59.135Z,99374.78
2022-11-16T05:24:39.043Z,99514.75
2022-11-16T05:27:15.981Z,99449.50
2022-11-16T05:29:53.136Z,99366.09
2022-11-16T05:32:23.923Z,99351.13
2022-11-16T05:34:55.911Z,99517.38
2022-11-16T05:37:31.041Z,99517.16
2022-11-16T05:40:10.497Z,99392.44
2022-11-16T05:42:39.790Z,99353.09
2022-11-16T05:45:21.517Z,99291.38
2022-11-16T05:47:51.326Z,99336.59
2022-11-16T05:50:21.321Z,99482.31
2022-11-16T05:52:50.993Z,99498.00
2022-11-16T05:55:21.054Z,99390.00
2022-11-16T05:57:47.792Z,99361.03
2022-11-16T06:00:15.195Z,99368.72
2022-11-16T06:02:42.375Z,99459.72
2022-11-16T06:05:09.285Z,99487.75
2022-11-16T06:07:35.924Z,99508.31
2022-11-16T06:10:02.663Z,99506.91
2022-11-16T06:12:29.281Z,99498.06
2022-11-16T06:14:56.189Z,99513.56
2022-11-16T06:17:22.975Z,99513.38
2022-11-16T06:19:49.591Z,99503.13
2022-11-16T06:22:16.248Z,99526.69
2022-11-16T06:24:42.961Z,99514.41
2022-11-16T06:27:09.582Z,99532.94
2022-11-16T06:29:36.250Z,99489.22
2022-11-16T06:32:02.938Z,99524.28
2022-11-16T06:34:29.589Z,99505.72
2022-11-16T06:39:31.640Z,99461.00
2022-11-16T06:55:21.374Z,99548.19
2022-11-16T07:05:46.448Z,99490.38
2022-11-16T07:08:13.249Z,99572.41
2022-11-16T07:13:18.081Z,99575.66
2022-11-16T07:29:07.422Z,99594.75
2022-11-16T07:36:51.414Z,99539.13
2022-11-16T07:39:18.057Z,99508.03
2022-11-16T07:41:45.306Z,99544.75
2022-11-16T07:49:35.420Z,99493.16
2022-11-16T07:57:19.690Z,99475.56
2022-11-16T07:59:46.300Z,99645.94
2022-11-16T08:04:48.202Z,99509.84
2022-11-16T08:15:14.290Z,99656.41
2022-11-16T08:20:17.011Z,99537.84
2022-11-16T08:25:18.949Z,99649.75
2022-11-16T08:33:02.339Z,99644.50
2022-11-16T08:56:35.714Z,99685.53
2022-11-16T08:59:02.603Z,99671.78
2022-11-16T09:01:31.510Z,99698.44
2022-11-16T09:03:59.414Z,99659.03
2022-11-16T09:06:27.674Z,99694.38
2022-11-16T09:08:55.210Z,99697.81
2022-11-16T09:11:24.170Z,99612.66
2022-11-16T09:13:53.094Z,99623.41
2022-11-16T09:16:21.179Z,99695.84
2022-11-16T09:18:50.179Z,99680.75
2022-11-16T09:21:25.553Z,99656.97
2022-11-16T09:23:53.224Z,99688.81
2022-11-16T09:26:23.106Z,99633.00
2022-11-16T09:29:04.536Z,99684.78
2022-11-16T09:31:34.796Z,99687.22
2022-11-16T09:34:01.619Z,99693.88
2022-11-16T10:36:21.361Z,99680.06
2022-11-16T10:38:51.213Z,99616.63
2022-11-16T10:41:36.529Z,99756.75
2022-11-16T10:44:29.376Z,99639.84
2022-11-16T10:47:07.616Z,99626.75
2022-11-16T10:49:45.284Z,99664.03
2022-11-16T10:52:12.740Z,99741.41
2022-11-16T10:54:44.030Z,99734.34
2022-11-16T11:40:19.964Z,99714.38
2022-11-16T11:48:21.185Z,99647.69
2022-11-16T11:50:53.160Z,99663.44
2022-11-16T11:55:59.904Z,99659.53
2022-11-16T11:58:31.151Z,99713.91
2022-11-16T12:01:25.881Z,99708.50
2022-11-16T12:04:12.416Z,99658.34
2022-11-16T12:06:54.934Z,99705.28
2022-11-16T12:12:35.244Z,99702.94
2022-11-16T12:17:55.202Z,99684.44
2022-11-16T12:20:47.516Z,99684.22
2022-11-16T12:23:48.198Z,99696.66
2022-11-16T12:26:40.021Z,99694.06
2022-11-16T12:29:32.136Z,99672.78
2022-11-16T12:32:10.861Z,99683.16
2022-11-16T12:34:53.260Z,99679.84
2022-11-16T12:37:35.983Z,99656.44
2022-11-16T12:40:50.699Z,99691.41
2022-11-16T12:43:49.375Z,99656.03
2022-11-16T12:46:24.745Z,99675.53
2022-11-16T12:49:00.051Z,99682.69
2022-11-16T12:51:49.071Z,99682.31
2022-11-16T12:54:25.000Z,99678.94
2022-11-16T12:57:26.904Z,99662.63
2022-11-16T12:59:56.747Z,99687.31
2022-11-16T13:02:57.076Z,99693.38
2022-11-16T13:05:36.539Z,99701.28
2022-11-16T13:08:11.403Z,99675.88
2022-11-16T13:10:45.670Z,99677.81
2022-11-16T13:16:07.008Z,99644.72
2022-11-16T13:18:36.223Z,99678.88
2022-11-16T13:21:46.673Z,99671.91
2022-11-16T13:24:38.059Z,99666.06
2022-11-16T13:27:21.657Z,99645.59
2022-11-16T13:29:48.429Z,99673.50
2022-11-16T13:32:26.415Z,99648.88
2022-11-16T13:34:53.674Z,99651.03
2022-11-16T13:37:38.306Z,99663.34
2022-11-16T13:40:05.165Z,99669.78
2022-11-16T13:43:02.846Z,99644.44
2022-11-16T13:45:53.059Z,99615.03
2022-11-16T13:48:37.208Z,99624.31
2022-11-16T13:51:07.559Z,99633.00
2022-11-16T13:56:49.206Z,99625.63
2022-11-16T13:59:16.714Z,99652.88
2022-11-16T14:02:23.070Z,99638.97
2022-11-16T14:05:01.262Z,99636.50
2022-11-16T14:07:33.795Z,99647.19
2022-11-16T14:10:01.528Z,99642.13
2022-11-16T14:12:53.718Z,99638.69
2022-11-16T14:15:29.142Z,99633.16
2022-11-16T14:18:01.005Z,99634.56
2022-11-16T14:20:55.176Z,99637.25
2022-11-16T14:23:38.476Z,99635.38
2022-11-16T14:26:12.966Z,99593.25
2022-11-16T14:29:12.952Z,99607.25
2022-11-16T14:31:48.865Z,99633.41
2022-11-16T14:34:22.660Z,99616.47
2022-11-16T14:36:50.288Z,99623.34
2022-11-16T14:39:37.440Z,99633.56
2022-11-16T14:42:14.106Z,99616.28
2022-11-16T14:44:40.971Z,99610.44
2022-11-16T14:47:22.406Z,99578.25
2022-11-16T14:49:49.494Z,99624.25
2022-11-16T14:52:19.039Z,99636.97
2022-11-16T14:54:55.466Z,99594.50
2022-11-16T14:57:24.638Z,99620.91
2022-11-16T15:00:08.742Z,99608.03
2022-11-16T15:02:36.445Z,99612.16
2022-11-16T15:05:03.313Z,99616.03
2022-11-16T15:07:30.587Z,99624.13
2022-11-16T15:09:59.899Z,99599.56
2022-11-16T15:12:46.131Z,99617.34
2022-11-16T15:15:12.649Z,99636.28
2022-11-16T15:17:41.588Z,99634.91
2022-11-16T15:20:20.083Z,99628.09
2022-11-16T15:22:50.705Z,99605.75
2022-11-16T15:25:42.730Z,99622.69
2022-11-16T15:28:18.616Z,99596.09
2022-11-16T15:30:49.728Z,99637.81
2022-11-16T15:33:22.164Z,99638.41
2022-11-16T15:35:48.789Z,99602.34
2022-11-16T15:38:23.844Z,99602.16
2022-11-16T15:40:57.763Z,99623.50
2022-11-16T15:43:29.082Z,99590.56
2022-11-16T15:45:56.255Z,99587.31
2022-11-16T15:48:24.993Z,99631.44
2022-11-16T15:51:05.515Z,99599.78
2022-11-16T15:53:44.196Z,99639.50
2022-11-16T15:56:33.015Z,99609.03
2022-11-16T15:59:09.484Z,99616.22
2022-11-16T16:01:43.005Z,99609.50
2022-11-16T16:04:15.919Z,99606.25
2022-11-16T16:06:42.620Z,99627.38
2022-11-16T16:09:18.352Z,99617.28
2022-11-16T16:11:45.033Z,99612.78
2022-11-16T16:14:26.799Z,99612.13
2022-11-16T16:16:56.955Z,99615.50
2022-11-16T16:19:37.195Z,99608.00
2022-11-16T16:22:05.845Z,99610.75
2022-11-16T16:24:37.173Z,99603.31
2022-11-16T16:27:19.874Z,99601.28
2022-11-16T16:29:48.605Z,99604.19
2022-11-16T16:32:30.499Z,99600.56
2022-11-16T16:34:59.453Z,99588.06
2022-11-16T16:37:27.929Z,99579.94
2022-11-16T16:39:54.734Z,99565.03
2022-11-16T16:42:21.390Z,99559.47
2022-11-16T16:44:48.600Z,99577.19
2022-11-16T16:47:17.005Z,99580.78
2022-11-16T16:49:44.174Z,99582.34
2022-11-16T16:52:12.736Z,99573.72
2022-11-16T16:54:40.472Z,99570.03
2022-11-16T16:57:07.357Z,99537.03
2022-11-16T16:59:33.962Z,99548.47
2022-11-16T17:02:00.678Z,99559.31
2022-11-16T17:04:27.353Z,99581.91
2022-11-16T17:06:54.561Z,99590.78
2022-11-16T17:09:21.328Z,99537.13
2022-11-16T17:11:48.090Z,99513.72
2022-11-16T17:14:14.700Z,99527.69
2022-11-16T17:16:41.416Z,99562.03
2022-11-16T17:19:08.233Z,99523.50
2022-11-16T17:21:34.902Z,99549.00
2022-11-16T17:24:01.671Z,99524.97
2022-11-16T17:26:29.603Z,99521.91
2022-11-16T17:28:57.361Z,99521.91
2022-11-16T17:31:25.484Z,99520.53
2022-11-16T17:33:52.669Z,99561.47
2022-11-16T17:36:20.505Z,99559.81
2022-11-16T17:38:47.202Z,99557.16
2022-11-16T17:41:16.716Z,99519.19
2022-11-16T17:43:45.114Z,99554.31
2022-11-16T17:46:14.236Z,99545.00
2022-11-16T17:48:43.383Z,99513.38
2022-11-16T17:51:15.274Z,99540.59
2022-11-16T17:53:44.355Z,99514.38
2022-11-16T17:56:12.787Z,99521.09
2022-11-16T17:58:39.458Z,99501.91
2022-11-16T18:01:06.089Z,99500.09
2022-11-16T18:03:36.194Z,99513.94
2022-11-16T18:06:09.125Z,63019.00
2022-11-16T18:08:36.735Z,63019.00
2022-11-16T18:11:08.313Z,63019.00
2022-11-16T18:13:36.107Z,63019.00
2022-11-16T18:16:12.186Z,63019.00
2022-11-16T18:18:39.279Z,63019.00
2022-11-16T18:21:07.660Z,63019.00
2022-11-16T18:23:36.227Z,63019.00
2022-11-16T18:26:15.482Z,63019.00
2022-11-16T18:28:45.454Z,63019.00
2022-11-16T18:31:15.442Z,63019.00
2022-11-16T18:33:42.914Z,63019.00
2022-11-16T18:36:11.098Z,63019.00
2022-11-16T18:38:38.907Z,63019.00
2022-11-16T18:41:11.635Z,63019.00
2022-11-16T18:43:40.504Z,63019.00
2022-11-16T18:46:08.016Z,63019.00
2022-11-16T18:48:34.913Z,63019.00
2022-11-16T18:51:03.218Z,63019.00
2022-11-16T18:53:31.495Z,63019.00
2022-11-16T18:55:59.005Z,63019.00
2022-11-16T19:01:16.852Z,63019.00
2022-11-16T19:03:47.687Z,63019.00
2022-11-16T19:06:20.616Z,63019.00
2022-11-16T19:08:55.373Z,63019.00
2022-11-16T19:11:24.668Z,63019.00
2022-11-16T19:14:08.989Z,63019.00
2022-11-16T19:16:36.781Z,63019.00
2022-11-16T19:19:15.034Z,63019.00
2022-11-16T19:21:42.841Z,63019.00
2022-11-16T19:24:12.518Z,63019.00
2022-11-16T19:26:41.786Z,63019.00
2022-11-16T19:29:39.157Z,63019.00
2022-11-16T19:37:24.053Z,63019.00
2022-11-16T19:39:50.980Z,63019.00
2022-11-16T19:42:23.136Z,63019.00
2022-11-16T19:47:26.662Z,63019.00
2022-11-16T19:49:53.402Z,63019.00
2022-11-16T19:52:20.342Z,99530.72
2022-11-16T19:54:48.392Z,99485.22
2022-11-16T19:57:17.008Z,99412.81
2022-11-16T19:59:44.025Z,99411.19
2022-11-16T20:02:20.597Z,99391.53
2022-11-16T20:07:23.206Z,99448.50
2022-11-16T20:09:58.726Z,99254.56
2022-11-16T20:12:25.688Z,99414.69
2022-11-16T20:14:52.483Z,99417.09
2022-11-16T20:17:19.283Z,99457.22
2022-11-16T20:19:46.575Z,99415.44
2022-11-16T20:22:13.612Z,99407.16
2022-11-16T20:24:40.403Z,99434.59
2022-11-16T20:27:08.012Z,99344.66
2022-11-16T20:29:34.641Z,99412.22
2022-11-16T20:32:01.309Z,99425.50
2022-11-16T20:34:28.006Z,99253.81
2022-11-16T20:36:54.662Z,99385.56
2022-11-16T20:39:21.624Z,99402.50
2022-11-16T20:41:50.265Z,99392.19
2022-11-16T20:44:21.178Z,99345.50
2022-11-16T20:46:49.049Z,99407.38
2022-11-16T20:49:16.119Z,99380.16
2022-11-16T20:51:42.817Z,99371.25
2022-11-16T20:54:09.553Z,99375.78
2022-11-16T20:56:36.438Z,99368.91
2022-11-16T20:59:03.578Z,99388.81
2022-11-16T21:01:32.856Z,99387.44
2022-11-16T21:04:01.905Z,99401.19
2022-11-16T21:06:29.046Z,99354.44
2022-11-16T21:08:56.312Z,99382.03
2022-11-16T21:11:29.198Z,99388.28
2022-11-16T21:14:15.381Z,99389.53
2022-11-16T21:16:42.580Z,99392.78
2022-11-16T21:19:09.488Z,99387.72
2022-11-16T21:21:36.396Z,99383.56
2022-11-16T21:24:03.171Z,99389.63
2022-11-16T21:26:32.237Z,99355.78
2022-11-16T21:29:00.168Z,99359.13
2022-11-16T21:31:29.946Z,99335.22
2022-11-16T21:33:57.937Z,99368.81
2022-11-16T21:36:26.536Z,99355.31
2022-11-16T21:38:53.848Z,99357.09
2022-11-16T21:41:23.089Z,99352.22
2022-11-16T21:43:50.051Z,99346.78
2022-11-16T21:46:27.672Z,99290.72
2022-11-16T21:48:56.806Z,99312.72
2022-11-16T21:51:26.125Z,99350.66
2022-11-16T21:53:53.446Z,99343.19
2022-11-16T21:56:22.397Z,99322.91
2022-11-16T21:58:53.567Z,99325.97
2022-11-16T22:01:21.160Z,99310.28
2022-11-16T22:04:08.465Z,99329.66
2022-11-16T22:06:54.376Z,99295.06
2022-11-16T22:09:21.295Z,99303.59
2022-11-16T22:11:48.157Z,99315.69
2022-11-16T22:14:14.971Z,99319.19
2022-11-16T22:16:41.614Z,99310.94
2022-11-16T22:19:08.242Z,99267.53
2022-11-16T22:21:35.031Z,99275.91
2022-11-16T22:24:02.691Z,99304.72
2022-11-16T22:26:29.493Z,99280.78
2022-11-16T22:28:56.344Z,99281.00
2022-11-16T22:31:23.021Z,99226.47
2022-11-16T22:33:52.891Z,99244.81
2022-11-16T22:36:19.666Z,99272.44
2022-11-16T22:38:46.517Z,99272.47
2022-11-16T22:41:13.281Z,99231.91
2022-11-16T22:43:40.352Z,99240.38
2022-11-16T22:46:07.181Z,99232.16
2022-11-16T22:48:36.956Z,99248.84
2022-11-16T22:51:23.422Z,99244.25
2022-11-16T22:53:58.623Z,99226.78
2022-11-16T22:56:26.222Z,99195.44
2022-11-16T22:58:53.330Z,99219.97
2022-11-16T23:01:20.181Z,99183.41
2022-11-16T23:03:48.014Z,99217.41
2022-11-16T23:06:14.885Z,99181.69
2022-11-16T23:08:41.829Z,99183.06
2022-11-16T23:11:36.452Z,99160.16
2022-11-16T23:14:23.330Z,99128.44
2022-11-16T23:16:50.721Z,99167.44
2022-11-16T23:19:38.397Z,99171.03
2022-11-16T23:22:24.565Z,99180.69
2022-11-16T23:25:10.009Z,99179.69
2022-11-16T23:28:07.910Z,99129.84
2022-11-16T23:30:35.241Z,99125.66
2022-11-16T23:33:03.011Z,99133.50
2022-11-16T23:35:29.819Z,99119.44
2022-11-16T23:38:01.649Z,99152.56
2022-11-16T23:40:33.612Z,99143.13
2022-11-16T23:43:18.698Z,99125.47
2022-11-16T23:45:46.096Z,99079.25
2022-11-16T23:48:16.153Z,99121.47
2022-11-16T23:50:44.412Z,99114.47
2022-11-16T23:53:11.969Z,99071.47
2022-11-16T23:55:39.589Z,99106.00
2022-11-16T23:58:10.824Z,99095.38
